sensor_id;sensor_type;location;lat;lon;timestamp;pressure;altitude;pressure_sealevel;temperature;humidity
20023;BME280;10172;42.054;24.546;2022-11-15T00:02:05;98836.59;;;6.05;100.00
20023;BME280;10172;42.054;24.546;2022-11-15T00:04:30;98850.00;;;6.20;100.00
20023;BME280;10172;42.054;24.546;2022-11-15T00:06:56;98842.22;;;5.95;100.00
20023;BME280;10172;42.054;24.546;2022-11-15T00:09:21;98848.03;;;5.82;100.00
20023;BME280;10172;42.054;24.546;2022-11-15T00:11:47;98849.66;;;6.08;100.00
20023;BME280;10172;42.054;24.546;2022-11-15T00:14:12;98850.22;;;6.36;100.00
20023;BME280;10172;42.054;24.546;2022-11-15T00:16:38;98847.47;;;6.79;100.00
20023;BME280;10172;42.054;24.546;2022-11-15T00:19:03;98842.22;;;6.17;100.00
20023;BME280;10172;42.054;24.546;2022-11-15T00:21:28;98846.94;;;6.31;100.00
20023;BME280;10172;42.054;24.546;2022-11-15T00:23:54;98847.06;;;6.06;100.00
20023;BME280;10172;42.054;24.546;2022-11-15T00:26:19;98830.13;;;6.12;100.00
20023;BME280;10172;42.054;24.546;2022-11-15T00:28:45;98842.03;;;6.22;100.00
20023;BME280;10172;42.054;24.546;2022-11-15T00:31:13;98839.44;;;6.62;100.00
20023;BME280;10172;42.054;24.546;2022-11-15T00:33:38;98842.16;;;6.19;100.00
20023;BME280;10172;42.054;24.546;2022-11-15T00:36:08;98834.38;;;6.76;100.00
20023;BME280;10172;42.054;24.546;2022-11-15T00:38:39;98845.75;;;6.98;100.00
20023;BME280;10172;42.054;24.546;2022-11-15T00:41:06;98841.81;;;6.48;100.00
20023;BME280;10172;42.054;24.546;2022-11-15T00:43:32;98837.41;;;6.87;100.00
20023;BME280;10172;42.054;24.546;2022-11-15T00:45:59;98832.16;;;6.67;100.00
20023;BME280;10172;42.054;24.546;2022-11-15T00:48:24;98830.78;;;6.17;100.00
20023;BME280;10172;42.054;24.546;2022-11-15T00:50:50;98825.50;;;6.17;100.00
20023;BME280;10172;42.054;24.546;2022-11-15T00:53:16;98829.53;;;6.25;100.00
20023;BME280;10172;42.054;24.546;2022-11-15T00:55:41;98833.69;;;6.11;100.00
20023;BME280;10172;42.054;24.546;2022-11-15T00:58:07;98839.13;;;5.84;100.00
20023;BME280;10172;42.054;24.546;2022-11-15T01:00:32;98832.59;;;5.94;100.00
20023;BME280;10172;42.054;24.546;2022-11-15T01:03:00;98832.72;;;6.13;100.00
20023;BME280;10172;42.054;24.546;2022-11-15T01:05:26;98830.16;;;6.52;100.00
20023;BME280;10172;42.054;24.546;2022-11-15T01:07:55;98833.75;;;6.51;100.00
20023;BME280;10172;42.054;24.546;2022-11-15T01:10:22;98833.56;;;6.76;100.00
20023;BME280;10172;42.054;24.546;2022-11-15T01:12:48;98828.09;;;6.18;100.00
20023;BME280;10172;42.054;24.546;2022-11-15T01:15:13;98821.78;;;6.00;100.00
20023;BME280;10172;42.054;24.546;2022-11-15T01:17:39;98821.19;;;5.94;100.00
20023;BME280;10172;42.054;24.546;2022-11-15T01:20:05;98823.00;;;5.70;100.00
20023;BME280;10172;42.054;24.546;2022-11-15T01:22:31;98819.66;;;5.88;100.00
20023;BME280;10172;42.054;24.546;2022-11-15T01:24:56;98819.25;;;5.31;100.00
20023;BME280;10172;42.054;24.546;2022-11-15T01:27:22;98818.41;;;5.52;100.00
20023;BME280;10172;42.054;24.546;2022-11-15T01:29:47;98818.31;;;5.77;100.00
20023;BME280;10172;42.054;24.546;2022-11-15T01:32:13;98816.25;;;6.07;100.00
20023;BME280;10172;42.054;24.546;2022-11-15T01:34:38;98810.47;;;5.75;100.00
20023;BME280;10172;42.054;24.546;2022-11-15T01:37:04;98813.53;;;5.65;100.00
20023;BME280;10172;42.054;24.546;2022-11-15T01:39:29;98819.59;;;4.99;100.00
20023;BME280;10172;42.054;24.546;2022-11-15T01:41:55;98812.81;;;6.05;100.00
20023;BME280;10172;42.054;24.546;2022-11-15T01:44:43;98812.78;;;6.67;100.00
20023;BME280;10172;42.054;24.546;2022-11-15T01:47:28;98806.53;;;4.96;100.00
20023;BME280;10172;42.054;24.546;2022-11-15T01:49:59;98813.09;;;4.84;100.00
20023;BME280;10172;42.054;24.546;2022-11-15T01:52:28;98814.78;;;5.10;100.00
20023;BME280;10172;42.054;24.546;2022-11-15T01:57:23;98811.19;;;5.57;100.00
20023;BME280;10172;42.054;24.546;2022-11-15T01:59:48;98809.59;;;5.75;100.00
20023;BME280;10172;42.054;24.546;2022-11-15T02:02:14;98815.00;;;5.50;100.00
20023;BME280;10172;42.054;24.546;2022-11-15T02:04:42;98808.63;;;5.77;100.00
20023;BME280;10172;42.054;24.546;2022-11-15T02:07:11;98825.22;;;5.36;100.00
20023;BME280;10172;42.054;24.546;2022-11-15T02:09:39;98819.13;;;5.34;100.00
20023;BME280;10172;42.054;24.546;2022-11-15T02:12:07;98824.81;;;5.68;100.00
20023;BME280;10172;42.054;24.546;2022-11-15T02:14:36;98820.25;;;5.50;100.00
20023;BME280;10172;42.054;24.546;2022-11-15T02:19:53;98817.53;;;5.30;100.00
20023;BME280;10172;42.054;24.546;2022-11-15T02:22:37;98814.84;;;5.08;100.00
20023;BME280;10172;42.054;24.546;2022-11-15T02:25:13;98815.66;;;5.10;100.00
20023;BME280;10172;42.054;24.546;2022-11-15T02:30:54;98811.22;;;5.34;100.00
20023;BME280;10172;42.054;24.546;2022-11-15T02:36:43;98810.56;;;5.51;100.00
20023;BME280;10172;42.054;24.546;2022-11-15T02:41:52;98800.88;;;4.58;100.00
20023;BME280;10172;42.054;24.546;2022-11-15T02:44:26;98805.13;;;4.38;100.00
20023;BME280;10172;42.054;24.546;2022-11-15T02:46:57;98810.84;;;4.73;100.00
20023;BME280;10172;42.054;24.546;2022-11-15T02:49:41;98795.19;;;4.94;100.00
20023;BME280;10172;42.054;24.546;2022-11-15T02:52:08;98801.22;;;5.42;100.00
20023;BME280;10172;42.054;24.546;2022-11-15T02:54:33;98807.56;;;5.15;100.00
20023;BME280;10172;42.054;24.546;2022-11-15T02:57:05;98795.25;;;5.15;100.00
20023;BME280;10172;42.054;24.546;2022-11-15T03:00:03;98804.75;;;5.19;100.00
20023;BME280;10172;42.054;24.546;2022-11-15T03:05:28;98797.16;;;5.33;100.00
20023;BME280;10172;42.054;24.546;2022-11-15T03:11:13;98797.63;;;5.66;100.00
20023;BME280;10172;42.054;24.546;2022-11-15T03:14:18;98791.16;;;5.52;100.00
20023;BME280;10172;42.054;24.546;2022-11-15T03:19:26;98792.00;;;5.75;100.00
20023;BME280;10172;42.054;24.546;2022-11-15T03:21:56;98792.75;;;5.34;100.00
20023;BME280;10172;42.054;24.546;2022-11-15T03:24:23;98781.97;;;5.62;100.00
20023;BME280;10172;42.054;24.546;2022-11-15T03:26:51;98794.88;;;6.33;100.00
20023;BME280;10172;42.054;24.546;2022-11-15T03:29:24;98800.63;;;5.57;100.00
20023;BME280;10172;42.054;24.546;2022-11-15T03:31:56;98795.28;;;5.14;100.00
20023;BME280;10172;42.054;24.546;2022-11-15T03:34:40;98789.63;;;5.68;100.00
20023;BME280;10172;42.054;24.546;2022-11-15T03:37:08;98776.44;;;5.46;100.00
20023;BME280;10172;42.054;24.546;2022-11-15T03:39:35;98782.09;;;5.14;100.00
20023;BME280;10172;42.054;24.546;2022-11-15T03:42:27;98782.97;;;5.59;100.00
20023;BME280;10172;42.054;24.546;2022-11-15T03:45:12;98778.41;;;5.84;100.00
20023;BME280;10172;42.054;24.546;2022-11-15T03:47:58;98758.53;;;5.54;100.00
20023;BME280;10172;42.054;24.546;2022-11-15T03:50:25;98763.19;;;5.69;100.00
20023;BME280;10172;42.054;24.546;2022-11-15T03:52:51;98770.44;;;5.19;100.00
20023;BME280;10172;42.054;24.546;2022-11-15T03:55:20;98760.72;;;5.21;100.00
20023;BME280;10172;42.054;24.546;2022-11-15T03:57:48;98759.63;;;4.57;100.00
20023;BME280;10172;42.054;24.546;2022-11-15T04:00:14;98741.69;;;4.19;100.00
20023;BME280;10172;42.054;24.546;2022-11-15T04:02:40;98762.41;;;4.30;100.00
20023;BME280;10172;42.054;24.546;2022-11-15T04:05:06;98762.06;;;4.39;100.00
20023;BME280;10172;42.054;24.546;2022-11-15T04:07:31;98751.97;;;4.51;100.00
20023;BME280;10172;42.054;24.546;2022-11-15T04:09:56;98755.97;;;4.61;100.00
20023;BME280;10172;42.054;24.546;2022-11-15T04:12:36;98743.28;;;5.17;100.00
20023;BME280;10172;42.054;24.546;2022-11-15T04:15:11;98744.28;;;4.68;100.00
20023;BME280;10172;42.054;24.546;2022-11-15T04:17:48;98737.09;;;4.49;100.00
20023;BME280;10172;42.054;24.546;2022-11-15T04:20:28;98748.25;;;4.32;100.00
20023;BME280;10172;42.054;24.546;2022-11-15T04:23:17;98744.97;;;4.50;100.00
20023;BME280;10172;42.054;24.546;2022-11-15T04:26:04;98745.94;;;4.71;100.00
20023;BME280;10172;42.054;24.546;2022-11-15T04:28:30;98728.03;;;4.80;100.00
20023;BME280;10172;42.054;24.546;2022-11-15T04:30:56;98740.84;;;4.66;100.00
20023;BME280;10172;42.054;24.546;2022-11-15T04:33:21;98742.38;;;4.49;100.00
20023;BME280;10172;42.054;24.546;2022-11-15T04:35:47;98744.06;;;4.74;100.00
20023;BME280;10172;42.054;24.546;2022-11-15T04:38:33;98738.25;;;5.33;100.00
20023;BME280;10172;42.054;24.546;2022-11-15T04:43:40;98736.28;;;4.95;100.00
20023;BME280;10172;42.054;24.546;2022-11-15T04:46:06;98742.06;;;4.81;100.00
20023;BME280;10172;42.054;24.546;2022-11-15T04:48:31;98734.66;;;4.91;100.00
20023;BME280;10172;42.054;24.546;2022-11-15T04:50:56;98733.97;;;4.62;100.00
20023;BME280;10172;42.054;24.546;2022-11-15T04:53:22;98736.31;;;5.16;100.00
20023;BME280;10172;42.054;24.546;2022-11-15T04:55:47;98735.25;;;4.75;100.00
20023;BME280;10172;42.054;24.546;2022-11-15T04:58:13;98724.91;;;4.93;100.00
20023;BME280;10172;42.054;24.546;2022-11-15T05:00:38;98735.69;;;4.63;100.00
20023;BME280;10172;42.054;24.546;2022-11-15T05:03:04;98726.28;;;4.79;100.00
20023;BME280;10172;42.054;24.546;2022-11-15T05:05:48;98734.44;;;4.50;100.00
20023;BME280;10172;42.054;24.546;2022-11-15T05:08:14;98725.63;;;4.27;100.00
20023;BME280;10172;42.054;24.546;2022-11-15T05:10:39;98730.03;;;4.26;100.00
20023;BME280;10172;42.054;24.546;2022-11-15T05:13:04;98736.16;;;4.51;100.00
20023;BME280;10172;42.054;24.546;2022-11-15T05:15:30;98726.78;;;4.67;100.00
20023;BME280;10172;42.054;24.546;2022-11-15T05:17:59;98727.41;;;4.49;100.00
20023;BME280;10172;42.054;24.546;2022-11-15T05:20:26;98720.97;;;5.26;100.00
20023;BME280;10172;42.054;24.546;2022-11-15T05:22:53;98722.31;;;5.14;100.00
20023;BME280;10172;42.054;24.546;2022-11-15T05:25:18;98726.00;;;5.32;100.00
20023;BME280;10172;42.054;24.546;2022-11-15T05:27:43;98731.88;;;5.17;100.00
20023;BME280;10172;42.054;24.546;2022-11-15T05:30:09;98718.78;;;5.37;100.00
20023;BME280;10172;42.054;24.546;2022-11-15T05:32:35;98726.72;;;5.14;100.00
20023;BME280;10172;42.054;24.546;2022-11-15T05:35:02;98730.63;;;5.04;100.00
20023;BME280;10172;42.054;24.546;2022-11-15T05:37:28;98732.25;;;4.61;100.00
20023;BME280;10172;42.054;24.546;2022-11-15T05:39:54;98736.31;;;4.93;100.00
20023;BME280;10172;42.054;24.546;2022-11-15T05:42:19;98732.34;;;4.81;100.00
20023;BME280;10172;42.054;24.546;2022-11-15T05:44:47;98739.75;;;5.18;100.00
20023;BME280;10172;42.054;24.546;2022-11-15T05:47:17;98751.50;;;5.10;100.00
20023;BME280;10172;42.054;24.546;2022-11-15T05:49:46;98749.28;;;4.99;100.00
20023;BME280;10172;42.054;24.546;2022-11-15T05:52:16;98737.78;;;5.45;100.00
20023;BME280;10172;42.054;24.546;2022-11-15T05:54:43;98748.94;;;5.30;100.00
20023;BME280;10172;42.054;24.546;2022-11-15T05:57:09;98759.06;;;4.96;100.00
20023;BME280;10172;42.054;24.546;2022-11-15T05:59:35;98749.19;;;5.01;100.00
20023;BME280;10172;42.054;24.546;2022-11-15T06:02:01;98749.91;;;5.27;100.00
20023;BME280;10172;42.054;24.546;2022-11-15T06:04:26;98759.00;;;5.20;100.00
20023;BME280;10172;42.054;24.546;2022-11-15T06:06:52;98745.63;;;5.47;100.00
20023;BME280;10172;42.054;24.546;2022-11-15T06:09:17;98739.75;;;5.40;100.00
20023;BME280;10172;42.054;24.546;2022-11-15T06:11:43;98748.94;;;5.30;100.00
20023;BME280;10172;42.054;24.546;2022-11-15T06:14:08;98753.66;;;5.65;100.00
20023;BME280;10172;42.054;24.546;2022-11-15T06:16:33;98753.69;;;5.87;100.00
20023;BME280;10172;42.054;24.546;2022-11-15T06:18:59;98748.66;;;5.59;100.00
20023;BME280;10172;42.054;24.546;2022-11-15T06:21:24;98754.09;;;5.76;100.00
20023;BME280;10172;42.054;24.546;2022-11-15T06:23:53;98750.69;;;6.36;100.00
20023;BME280;10172;42.054;24.546;2022-11-15T06:26:18;98750.28;;;6.05;100.00
20023;BME280;10172;42.054;24.546;2022-11-15T06:28:44;98750.91;;;5.90;100.00
20023;BME280;10172;42.054;24.546;2022-11-15T06:31:10;98742.81;;;5.94;100.00
20023;BME280;10172;42.054;24.546;2022-11-15T06:33:39;98751.81;;;6.31;100.00
20023;BME280;10172;42.054;24.546;2022-11-15T06:36:07;98755.06;;;6.76;100.00
20023;BME280;10172;42.054;24.546;2022-11-15T06:38:33;98760.44;;;6.54;100.00
20023;BME280;10172;42.054;24.546;2022-11-15T06:41:06;98762.78;;;6.62;100.00
20023;BME280;10172;42.054;24.546;2022-11-15T06:43:33;98759.78;;;6.70;100.00
20023;BME280;10172;42.054;24.546;2022-11-15T06:45:59;98758.94;;;6.49;100.00
20023;BME280;10172;42.054;24.546;2022-11-15T06:48:26;98754.25;;;6.94;100.00
20023;BME280;10172;42.054;24.546;2022-11-15T06:50:55;98750.72;;;6.75;100.00
20023;BME280;10172;42.054;24.546;2022-11-15T06:53:22;98744.75;;;6.51;100.00
20023;BME280;10172;42.054;24.546;2022-11-15T06:55:50;98738.84;;;6.45;100.00
20023;BME280;10172;42.054;24.546;2022-11-15T06:58:16;98734.22;;;6.70;100.00
20023;BME280;10172;42.054;24.546;2022-11-15T07:00:42;98740.19;;;7.67;100.00
20023;BME280;10172;42.054;24.546;2022-11-15T07:03:08;98741.56;;;8.44;100.00
20023;BME280;10172;42.054;24.546;2022-11-15T07:05:34;98739.50;;;8.66;100.00
20023;BME280;10172;42.054;24.546;2022-11-15T07:08:00;98746.75;;;8.63;100.00
20023;BME280;10172;42.054;24.546;2022-11-15T07:10:27;98738.69;;;8.31;100.00
20023;BME280;10172;42.054;24.546;2022-11-15T07:12:53;98732.56;;;7.95;100.00
20023;BME280;10172;42.054;24.546;2022-11-15T07:15:21;98744.28;;;8.25;100.00
20023;BME280;10172;42.054;24.546;2022-11-15T07:17:46;98739.75;;;8.62;100.00
20023;BME280;10172;42.054;24.546;2022-11-15T07:20:12;98739.88;;;9.24;100.00
20023;BME280;10172;42.054;24.546;2022-11-15T07:22:39;98743.31;;;9.73;100.00
20023;BME280;10172;42.054;24.546;2022-11-15T07:25:05;98749.66;;;10.00;100.00
20023;BME280;10172;42.054;24.546;2022-11-15T07:27:31;98750.66;;;10.29;100.00
20023;BME280;10172;42.054;24.546;2022-11-15T07:29:56;98747.78;;;10.48;100.00
20023;BME280;10172;42.054;24.546;2022-11-15T07:32:21;98742.53;;;10.46;100.00
20023;BME280;10172;42.054;24.546;2022-11-15T07:34:47;98743.03;;;10.53;100.00
20023;BME280;10172;42.054;24.546;2022-11-15T07:37:12;98746.63;;;10.38;100.00
20023;BME280;10172;42.054;24.546;2022-11-15T07:39:38;98747.00;;;10.60;100.00
20023;BME280;10172;42.054;24.546;2022-11-15T07:42:04;98746.19;;;10.73;100.00
20023;BME280;10172;42.054;24.546;2022-11-15T07:44:48;98744.22;;;11.05;100.00
20023;BME280;10172;42.054;24.546;2022-11-15T07:47:13;98749.50;;;11.19;100.00
20023;BME280;10172;42.054;24.546;2022-11-15T07:49:39;98747.88;;;11.31;100.00
20023;BME280;10172;42.054;24.546;2022-11-15T07:52:04;98740.66;;;11.33;100.00
20023;BME280;10172;42.054;24.546;2022-11-15T07:54:30;98742.19;;;11.23;100.00
20023;BME280;10172;42.054;24.546;2022-11-15T07:56:55;98739.94;;;10.89;100.00
20023;BME280;10172;42.054;24.546;2022-11-15T07:59:20;98740.13;;;11.00;100.00
20023;BME280;10172;42.054;24.546;2022-11-15T08:01:46;98732.09;;;11.28;100.00
20023;BME280;10172;42.054;24.546;2022-11-15T08:04:11;98733.97;;;11.54;100.00
20023;BME280;10172;42.054;24.546;2022-11-15T08:06:39;98737.75;;;11.64;100.00
20023;BME280;10172;42.054;24.546;2022-11-15T08:09:05;98740.53;;;11.89;100.00
20023;BME280;10172;42.054;24.546;2022-11-15T08:11:30;98738.44;;;11.94;100.00
20023;BME280;10172;42.054;24.546;2022-11-15T08:13:55;98745.19;;;11.59;100.00
20023;BME280;10172;42.054;24.546;2022-11-15T08:16:21;98743.19;;;11.89;100.00
20023;BME280;10172;42.054;24.546;2022-11-15T08:18:46;98746.78;;;12.03;100.00
20023;BME280;10172;42.054;24.546;2022-11-15T08:21:14;98748.28;;;12.46;100.00
20023;BME280;10172;42.054;24.546;2022-11-15T08:23:43;98741.34;;;12.69;100.00
20023;BME280;10172;42.054;24.546;2022-11-15T08:26:08;98741.38;;;12.81;100.00
20023;BME280;10172;42.054;24.546;2022-11-15T08:28:34;98740.19;;;12.85;100.00
20023;BME280;10172;42.054;24.546;2022-11-15T08:31:00;98742.88;;;12.85;100.00
20023;BME280;10172;42.054;24.546;2022-11-15T08:33:26;98750.97;;;12.96;100.00
20023;BME280;10172;42.054;24.546;2022-11-15T08:35:51;98743.44;;;12.38;100.00
20023;BME280;10172;42.054;24.546;2022-11-15T08:38:17;98742.00;;;12.59;100.00
20023;BME280;10172;42.054;24.546;2022-11-15T08:40:42;98744.09;;;12.29;100.00
20023;BME280;10172;42.054;24.546;2022-11-15T08:43:08;98747.13;;;12.63;100.00
20023;BME280;10172;42.054;24.546;2022-11-15T08:45:35;98743.78;;;12.46;100.00
20023;BME280;10172;42.054;24.546;2022-11-15T08:48:02;98748.81;;;12.76;100.00
20023;BME280;10172;42.054;24.546;2022-11-15T08:50:28;98742.63;;;12.63;100.00
20023;BME280;10172;42.054;24.546;2022-11-15T08:52:54;98722.38;;;12.73;100.00
20023;BME280;10172;42.054;24.546;2022-11-15T08:55:19;98728.03;;;12.81;100.00
20023;BME280;10172;42.054;24.546;2022-11-15T08:57:44;98729.50;;;12.98;100.00
20023;BME280;10172;42.054;24.546;2022-11-15T09:00:11;98728.34;;;13.02;100.00
20023;BME280;10172;42.054;24.546;2022-11-15T09:02:38;98719.81;;;13.09;100.00
20023;BME280;10172;42.054;24.546;2022-11-15T09:05:04;98717.44;;;13.05;89.19
20023;BME280;10172;42.054;24.546;2022-11-15T09:07:30;98709.13;;;13.09;87.81
20023;BME280;10172;42.054;24.546;2022-11-15T09:09:57;98710.50;;;13.15;85.36
20023;BME280;10172;42.054;24.546;2022-11-15T09:12:24;98694.34;;;13.16;84.75
20023;BME280;10172;42.054;24.546;2022-11-15T09:14:49;98695.28;;;13.41;84.08
20023;BME280;10172;42.054;24.546;2022-11-15T09:17:15;98697.00;;;13.65;84.56
20023;BME280;10172;42.054;24.546;2022-11-15T09:19:41;98682.94;;;13.98;82.78
20023;BME280;10172;42.054;24.546;2022-11-15T09:22:07;98683.00;;;13.86;80.46
20023;BME280;10172;42.054;24.546;2022-11-15T09:24:33;98667.88;;;13.97;82.35
20023;BME280;10172;42.054;24.546;2022-11-15T09:26:58;98672.59;;;14.28;79.11
20023;BME280;10172;42.054;24.546;2022-11-15T09:29:24;98671.19;;;14.47;77.19
20023;BME280;10172;42.054;24.546;2022-11-15T09:31:52;98663.13;;;14.35;77.75
20023;BME280;10172;42.054;24.546;2022-11-15T09:34:17;98658.03;;;14.44;77.68
20023;BME280;10172;42.054;24.546;2022-11-15T09:36:42;98659.63;;;14.00;78.36
20023;BME280;10172;42.054;24.546;2022-11-15T09:39:08;98657.34;;;13.36;81.02
20023;BME280;10172;42.054;24.546;2022-11-15T09:44:17;98657.00;;;14.22;81.65
20023;BME280;10172;42.054;24.546;2022-11-15T09:49:31;98641.28;;;14.53;80.69
20023;BME280;10172;42.054;24.546;2022-11-15T09:51:57;98633.25;;;14.64;82.09
20023;BME280;10172;42.054;24.546;2022-11-15T09:56:56;98634.25;;;14.96;79.16
20023;BME280;10172;42.054;24.546;2022-11-15T10:04:38;98619.34;;;13.91;85.04
20023;BME280;10172;42.054;24.546;2022-11-15T10:07:15;98627.03;;;14.41;84.36
20023;BME280;10172;42.054;24.546;2022-11-15T10:09:51;98603.81;;;14.75;81.34
20023;BME280;10172;42.054;24.546;2022-11-15T10:12:18;98616.44;;;15.17;80.79
20023;BME280;10172;42.054;24.546;2022-11-15T10:14:45;98608.41;;;14.40;81.14
20023;BME280;10172;42.054;24.546;2022-11-15T10:17:48;98594.25;;;13.46;85.71
20023;BME280;10172;42.054;24.546;2022-11-15T10:20:26;98596.09;;;13.80;86.67
20023;BME280;10172;42.054;24.546;2022-11-15T10:22:54;98595.28;;;14.59;85.04
20023;BME280;10172;42.054;24.546;2022-11-15T10:25:26;98595.66;;;14.65;83.67
20023;BME280;10172;42.054;24.546;2022-11-15T10:30:46;98578.00;;;13.49;91.09
20023;BME280;10172;42.054;24.546;2022-11-15T10:35:44;98570.56;;;15.00;86.28
20023;BME280;10172;42.054;24.546;2022-11-15T10:38:10;98571.16;;;15.03;84.22
20023;BME280;10172;42.054;24.546;2022-11-15T10:40:38;98565.06;;;15.44;83.70
20023;BME280;10172;42.054;24.546;2022-11-15T10:45:36;98554.09;;;15.04;85.28
20023;BME280;10172;42.054;24.546;2022-11-15T10:50:37;98556.31;;;15.42;83.87
20023;BME280;10172;42.054;24.546;2022-11-15T10:53:03;98548.97;;;15.55;83.66
20023;BME280;10172;42.054;24.546;2022-11-15T10:55:33;98544.06;;;15.28;82.97
20023;BME280;10172;42.054;24.546;2022-11-15T11:00:52;98531.72;;;15.69;82.72
20023;BME280;10172;42.054;24.546;2022-11-15T11:03:35;98532.44;;;15.39;82.25
20023;BME280;10172;42.054;24.546;2022-11-15T11:06:15;98523.72;;;14.72;83.77
20023;BME280;10172;42.054;24.546;2022-11-15T11:09:20;98519.22;;;15.26;84.57
20023;BME280;10172;42.054;24.546;2022-11-15T11:11:51;98518.53;;;15.13;84.45
20023;BME280;10172;42.054;24.546;2022-11-15T11:36:29;98478.41;;;15.23;82.42
20023;BME280;10172;42.054;24.546;2022-11-15T11:42:01;98479.72;;;15.60;82.22
20023;BME280;10172;42.054;24.546;2022-11-15T11:44:34;98467.38;;;15.89;83.42
20023;BME280;10172;42.054;24.546;2022-11-15T11:47:24;98461.59;;;15.94;83.13
20023;BME280;10172;42.054;24.546;2022-11-15T11:50:19;98470.13;;;16.39;81.66
20023;BME280;10172;42.054;24.546;2022-11-15T11:52:57;98461.81;;;16.11;81.35
20023;BME280;10172;42.054;24.546;2022-11-15T11:55:39;98469.25;;;15.25;81.73
20023;BME280;10172;42.054;24.546;2022-11-15T11:58:20;98465.19;;;15.10;83.41
20023;BME280;10172;42.054;24.546;2022-11-15T12:01:13;98451.28;;;15.48;82.50
20023;BME280;10172;42.054;24.546;2022-11-15T12:03:44;98440.63;;;15.78;82.08
20023;BME280;10172;42.054;24.546;2022-11-15T12:14:50;98422.47;;;15.71;81.96
20023;BME280;10172;42.054;24.546;2022-11-15T12:17:21;98414.31;;;15.72;82.42
20023;BME280;10172;42.054;24.546;2022-11-15T12:19:48;98411.03;;;15.89;81.95
20023;BME280;10172;42.054;24.546;2022-11-15T12:22:19;98412.22;;;16.06;81.47
20023;BME280;10172;42.054;24.546;2022-11-15T12:30:00;98406.81;;;15.96;83.00
20023;BME280;10172;42.054;24.546;2022-11-15T12:34:56;98394.97;;;15.99;82.54
20023;BME280;10172;42.054;24.546;2022-11-15T12:42:44;98394.44;;;16.05;82.93
20023;BME280;10172;42.054;24.546;2022-11-15T12:45:29;98385.22;;;15.98;82.95
20023;BME280;10172;42.054;24.546;2022-11-15T12:48:44;98391.94;;;16.23;82.39
20023;BME280;10172;42.054;24.546;2022-11-15T12:50:57;98382.22;;;16.31;80.99
20023;BME280;10172;42.054;24.546;2022-11-15T12:56:09;98377.28;;;16.36;81.49
20023;BME280;10172;42.054;24.546;2022-11-15T12:58:56;98373.50;;;15.99;81.84
20023;BME280;10172;42.054;24.546;2022-11-15T13:04:21;98360.31;;;16.17;80.98
20023;BME280;10172;42.054;24.546;2022-11-15T13:06:50;98369.63;;;16.22;82.85
20023;BME280;10172;42.054;24.546;2022-11-15T13:11:58;98358.88;;;15.73;82.97
20023;BME280;10172;42.054;24.546;2022-11-15T13:17:24;98347.81;;;15.96;82.91
20023;BME280;10172;42.054;24.546;2022-11-15T13:22:40;98344.19;;;15.77;82.85
20023;BME280;10172;42.054;24.546;2022-11-15T13:28:49;98346.06;;;15.35;83.71
20023;BME280;10172;42.054;24.546;2022-11-15T13:31:27;98353.19;;;15.04;85.54
20023;BME280;10172;42.054;24.546;2022-11-15T13:33:58;98345.91;;;15.36;84.90
20023;BME280;10172;42.054;24.546;2022-11-15T13:36:28;98344.44;;;15.43;84.40
20023;BME280;10172;42.054;24.546;2022-11-15T13:41:24;98334.91;;;15.50;84.67
20023;BME280;10172;42.054;24.546;2022-11-15T13:43:52;98329.31;;;15.01;86.07
20023;BME280;10172;42.054;24.546;2022-11-15T13:46:21;98322.75;;;15.05;86.59
20023;BME280;10172;42.054;24.546;2022-11-15T13:48:58;98323.41;;;14.98;86.33
20023;BME280;10172;42.054;24.546;2022-11-15T13:51:35;98327.84;;;14.56;87.48
20023;BME280;10172;42.054;24.546;2022-11-15T13:57:13;98323.56;;;14.85;87.25
20023;BME280;10172;42.054;24.546;2022-11-15T13:59:47;98320.31;;;14.50;88.46
20023;BME280;10172;42.054;24.546;2022-11-15T14:02:17;98332.72;;;14.51;88.96
20023;BME280;10172;42.054;24.546;2022-11-15T14:04:49;98328.47;;;14.48;89.49
20023;BME280;10172;42.054;24.546;2022-11-15T14:07:17;98331.78;;;14.41;90.01
20023;BME280;10172;42.054;24.546;2022-11-15T14:09:44;98330.75;;;14.53;89.34
20023;BME280;10172;42.054;24.546;2022-11-15T14:12:49;98329.22;;;14.39;89.72
20023;BME280;10172;42.054;24.546;2022-11-15T14:15:35;98328.31;;;14.61;88.91
20023;BME280;10172;42.054;24.546;2022-11-15T14:18:02;98318.94;;;14.55;89.29
20023;BME280;10172;42.054;24.546;2022-11-15T14:20:36;98315.38;;;14.66;89.14
20023;BME280;10172;42.054;24.546;2022-11-15T14:25:56;98330.09;;;14.40;89.58
20023;BME280;10172;42.054;24.546;2022-11-15T14:30:47;98322.50;;;14.76;87.40
20023;BME280;10172;42.054;24.546;2022-11-15T14:33:31;98317.59;;;14.81;87.93
20023;BME280;10172;42.054;24.546;2022-11-15T14:36:02;98319.38;;;14.71;87.79
20023;BME280;10172;42.054;24.546;2022-11-15T14:38:28;98318.72;;;14.04;89.93
20023;BME280;10172;42.054;24.546;2022-11-15T14:40:54;98313.72;;;12.65;99.25
20023;BME280;10172;42.054;24.546;2022-11-15T14:43:20;98314.34;;;11.11;100.00
20023;BME280;10172;42.054;24.546;2022-11-15T14:45:46;98313.56;;;10.32;100.00
20023;BME280;10172;42.054;24.546;2022-11-15T14:48:11;98300.59;;;9.86;100.00
20023;BME280;10172;42.054;24.546;2022-11-15T14:50:37;98297.16;;;10.64;100.00
20023;BME280;10172;42.054;24.546;2022-11-15T14:53:03;98292.03;;;10.74;100.00
20023;BME280;10172;42.054;24.546;2022-11-15T14:55:31;98300.25;;;11.09;100.00
20023;BME280;10172;42.054;24.546;2022-11-15T14:57:59;98295.31;;;10.52;100.00
20023;BME280;10172;42.054;24.546;2022-11-15T15:00:27;98290.69;;;10.42;100.00
20023;BME280;10172;42.054;24.546;2022-11-15T15:02:53;98283.94;;;10.50;100.00
20023;BME280;10172;42.054;24.546;2022-11-15T15:05:25;98292.66;;;9.99;100.00
20023;BME280;10172;42.054;24.546;2022-11-15T15:07:51;98288.13;;;9.87;100.00